Time;durP1;ratioP1;P1;durP2;ratioP2;P2;SDS_P1;SDS_P2;PMS_P1;PMS_P2;Temp;Humidity;BMP_temperature;BMP_pressure;BME280_temperature;BME280_humidity;BME280_pressure;Samples;Min_cycle;Max_cycle;Signal;HPM_P1;HPM_P2
2022/04/23 00:00:28;;;;;;;0.50;0.50;;;10.80;73.30;;;10.24;59.30;93867.59;5061719;28;20210;-88
2022/04/23 00:02:59;;;;;;;0.50;0.50;;;10.70;73.20;;;10.29;59.73;93869.56;5057475;28;20204;-87
2022/04/23 00:05:28;;;;;;;0.60;0.60;;;10.80;73.40;;;10.28;59.67;93871.41;5042267;28;20673;-87
2022/04/23 00:07:56;;;;;;;0.73;0.73;;;10.80;73.40;;;10.29;59.40;93866.94;5041882;28;20192;-88
2022/04/23 00:10:23;;;;;;;0.50;0.50;;;10.80;73.40;;;10.19;59.42;93854.34;5025214;28;20230;-87
2022/04/23 00:12:54;;;;;;;0.50;0.50;;;10.80;73.40;;;10.29;59.43;93873.00;5044100;28;20199;-87
2022/04/23 00:15:25;;;;;;;0.50;0.50;;;10.80;73.40;;;10.28;59.61;93867.97;5044831;28;20214;-88
2022/04/23 00:17:53;;;;;;;0.60;0.60;;;10.80;73.40;;;10.20;59.65;93863.81;5078708;28;20198;-87
2022/04/23 00:20:21;;;;;;;0.60;0.60;;;10.80;73.30;;;10.19;59.84;93864.81;5056559;28;20232;-87
2022/04/23 00:22:49;;;;;;;0.50;0.50;;;10.80;73.30;;;10.29;59.76;93874.81;5043573;28;20616;-87
2022/04/23 00:25:16;;;;;;;0.50;0.50;;;10.80;73.40;;;10.21;59.45;93870.66;5041382;28;20218;-87
2022/04/23 00:27:43;;;;;;;0.50;0.50;;;10.80;73.40;;;10.21;59.77;93866.22;5057642;28;20206;-87
2022/04/23 00:30:12;;;;;;;0.50;0.50;;;10.80;73.50;;;10.19;59.78;93862.19;5057923;28;20222;-87
2022/04/23 00:32:39;;;;;;;0.50;0.50;;;10.80;73.50;;;10.18;59.60;93865.84;5075512;28;20253;-88
2022/04/23 00:35:07;;;;;;;0.70;0.70;;;10.80;73.50;;;10.25;59.85;93871.81;5044646;28;20214;-87
2022/04/23 00:37:34;;;;;;;0.60;0.60;;;10.80;73.50;;;10.27;59.94;93874.25;5058625;28;20753;-87
2022/04/23 00:40:06;;;;;;;0.50;0.50;;;10.90;73.70;;;10.31;59.95;93878.81;5072561;28;20212;-87
2022/04/23 00:42:55;;;;;;;0.50;0.50;;;10.80;73.60;;;10.28;59.94;93876.66;5058465;28;20199;-86
2022/04/23 00:45:26;;;;;;;0.75;0.75;;;10.90;74.50;;;10.17;60.02;93857.19;5074109;28;20587;-87
2022/04/23 00:47:54;;;;;;;0.55;0.55;;;10.90;73.80;;;10.29;60.21;93880.06;5076617;28;20206;-87
2022/04/23 00:50:22;;;;;;;0.50;0.50;;;10.80;73.70;;;10.30;60.09;93876.41;5060749;28;20215;-87
2022/04/23 00:52:58;;;;;;;0.60;0.60;;;10.80;73.60;;;10.30;60.04;93881.66;5040523;28;20592;-87
2022/04/23 00:55:26;;;;;;;0.60;0.60;;;10.80;74.20;;;10.30;60.14;93884.28;5057105;28;20223;-87
2022/04/23 00:57:54;;;;;;;0.70;0.70;;;10.80;73.70;;;10.30;60.19;93885.09;5040422;28;20199;-87
2022/04/23 01:00:21;;;;;;;0.50;0.50;;;10.80;73.80;;;10.30;60.29;93882.47;5040535;28;20241;-87
2022/04/23 01:02:48;;;;;;;0.50;0.50;;;10.80;73.70;;;10.26;60.12;93876.06;5059119;28;20209;-87
2022/04/23 01:05:16;;;;;;;0.70;0.70;;;10.80;73.60;;;10.17;60.01;93864.25;5043970;28;20252;-87
2022/04/23 01:07:45;;;;;;;0.60;0.60;;;10.80;73.60;;;10.18;60.15;93865.84;5060379;28;20286;-88
2022/04/23 01:10:12;;;;;;;0.60;0.60;;;10.80;73.60;;;10.16;59.99;93871.28;5046537;28;20226;-87
2022/04/23 01:12:40;;;;;;;0.50;0.50;;;10.80;73.60;;;10.21;60.22;93873.28;5042715;28;20237;-87
2022/04/23 01:15:09;;;;;;;0.70;0.70;;;10.80;73.60;;;10.20;60.12;93874.28;5073036;28;20784;-88
2022/04/23 01:17:37;;;;;;;0.60;0.60;;;10.80;73.80;;;10.20;60.22;93874.28;5073491;28;20195;-87
2022/04/23 01:20:11;;;;;;;0.70;0.70;;;10.80;73.70;;;10.15;60.22;93874.94;5056683;28;20225;-87
2022/04/23 01:22:41;;;;;;;0.60;0.60;;;10.80;73.80;;;10.18;60.15;93876.31;5032759;28;20294;-87
2022/04/23 01:25:14;;;;;;;0.50;0.50;;;10.80;73.70;;;10.13;60.30;93873.53;5024000;28;20286;-87
2022/04/23 01:27:45;;;;;;;0.52;0.52;;;10.70;73.70;;;10.16;60.37;93879.16;5047687;28;20301;-87
2022/04/23 01:30:13;;;;;;;0.60;0.60;;;10.70;73.70;;;10.05;60.03;93853.66;5056453;28;20222;-88
2022/04/23 01:32:40;;;;;;;0.70;0.70;;;10.80;73.60;;;10.13;60.11;93863.88;5023369;28;20219;-87
2022/04/23 01:35:08;;;;;;;0.70;0.70;;;10.70;73.50;;;10.13;60.21;93873.53;5072868;28;20218;-87
2022/04/23 01:37:35;;;;;;;0.65;0.65;;;10.70;73.60;;;9.96;60.19;93847.91;5050729;28;20202;-87
2022/04/23 01:40:04;;;;;;;0.70;0.70;;;10.70;73.60;;;10.07;60.23;93872.56;5040145;28;20223;-87
2022/04/23 01:42:31;;;;;;;0.60;0.60;;;10.70;73.60;;;9.92;60.20;93844.09;5042493;28;20661;-87
2022/04/23 01:44:58;;;;;;;0.57;0.57;;;10.70;73.70;;;10.07;60.35;93869.94;5059494;28;20210;-87
2022/04/23 01:47:25;;;;;;;0.60;0.60;;;10.60;73.70;;;10.08;60.13;93874.19;5059175;28;20244;-87
2022/04/23 01:49:53;;;;;;;0.60;0.60;;;10.60;73.60;;;10.06;60.25;93868.38;5059046;28;20237;-87
2022/04/23 01:52:20;;;;;;;0.60;0.60;;;10.60;73.60;;;10.06;60.20;93874.41;5066246;28;20225;-85
2022/04/23 01:54:47;;;;;;;0.60;0.60;;;10.60;73.60;;;10.05;60.29;93877.25;5100788;28;20226;-87
2022/04/23 01:57:14;;;;;;;0.70;0.70;;;10.60;73.60;;;9.87;60.23;93854.41;5052139;28;20730;-87
2022/04/23 01:59:41;;;;;;;0.70;0.70;;;10.60;73.60;;;9.99;60.27;93871.03;5064335;28;20593;-87
2022/04/23 02:02:08;;;;;;;0.60;0.60;;;10.60;73.60;;;10.01;60.04;93887.34;5058929;28;20289;-86
2022/04/23 02:04:35;;;;;;;0.70;0.70;;;10.60;73.60;;;9.84;60.34;93855.63;5058778;28;20230;-86
2022/04/23 02:07:03;;;;;;;0.50;0.50;;;10.60;73.80;;;9.95;60.42;93877.72;5058950;28;20278;-87
2022/04/23 02:09:30;;;;;;;0.50;0.50;;;10.60;73.70;;;9.90;60.16;93878.34;5050588;28;20219;-87
2022/04/23 02:11:58;;;;;;;0.70;0.70;;;10.50;73.60;;;9.94;60.31;93876.13;5056891;28;20218;-87
2022/04/23 02:14:25;;;;;;;0.50;0.50;;;10.60;73.70;;;9.97;60.30;93886.16;5058355;28;20218;-86
2022/04/23 02:16:53;;;;;;;0.60;0.60;;;10.50;73.60;;;9.97;60.39;93877.50;5042020;28;20199;-86
2022/04/23 02:19:22;;;;;;;0.60;0.60;;;10.50;73.60;;;9.91;60.32;93879.16;5049831;28;20316;-86
2022/04/23 02:21:49;;;;;;;0.65;0.65;;;10.50;73.60;;;9.95;60.34;93885.59;5058641;28;20191;-87
2022/04/23 02:24:16;;;;;;;0.70;0.70;;;10.50;73.60;;;9.91;60.21;93877.34;5040822;28;20235;-86
2022/04/23 02:26:43;;;;;;;0.50;0.50;;;10.50;73.50;;;9.93;60.00;93877.13;5042333;28;20226;-86
2022/04/23 02:29:11;;;;;;;0.70;0.70;;;10.50;73.50;;;9.92;60.44;93883.38;5067564;28;20610;-87
2022/04/23 02:31:38;;;;;;;0.60;0.60;;;10.50;73.50;;;9.90;60.53;93888.84;5041461;28;20640;-86
2022/04/23 02:34:05;;;;;;;0.70;0.70;;;10.50;73.50;;;9.81;60.60;93874.38;5056509;28;20214;-86
2022/04/23 02:36:32;;;;;;;0.50;0.50;;;10.50;73.60;;;9.72;60.47;93862.59;5087759;28;20194;-87
2022/04/23 02:39:02;;;;;;;0.60;0.60;;;10.50;73.60;;;9.81;60.17;93877.00;5077835;28;20209;-87
2022/04/23 02:41:30;;;;;;;0.60;0.60;;;10.50;73.60;;;9.89;60.46;93889.06;5061198;28;20202;-87
2022/04/23 02:43:57;;;;;;;0.70;0.70;;;10.40;73.60;;;9.70;60.16;93859.38;5054398;28;20250;-86
2022/04/23 02:46:24;;;;;;;0.60;0.60;;;10.50;73.60;;;9.88;60.51;93890.06;5036859;28;20548;-87
2022/04/23 02:48:51;;;;;;;0.70;0.70;;;10.40;73.60;;;9.87;60.33;93881.38;5020634;28;20202;-87
2022/04/23 02:51:19;;;;;;;0.52;0.52;;;10.40;73.60;;;9.90;60.29;93888.84;5020872;28;20668;-87
2022/04/23 02:53:46;;;;;;;0.73;0.73;;;10.50;73.70;;;9.88;60.41;93885.63;5051747;28;20672;-85
2022/04/23 02:56:16;;;;;;;0.70;0.70;;;10.60;73.80;;;9.76;60.38;93872.41;5074055;28;20186;-86
2022/04/23 02:58:44;;;;;;;0.60;0.60;;;10.50;73.70;;;9.88;60.27;93888.22;5042476;28;20591;-85
2022/04/23 03:01:11;;;;;;;0.70;0.70;;;10.50;73.70;;;9.91;60.50;93887.00;5057826;28;20289;-86
2022/04/23 03:03:43;;;;;;;0.60;0.60;;;10.40;73.70;;;9.80;60.20;93871.97;5058912;28;20226;-86
2022/04/23 03:06:10;;;;;;;0.70;0.70;;;10.50;73.80;;;9.90;60.40;93888.84;5042950;28;20200;-86
2022/04/23 03:08:38;;;;;;;0.65;0.65;;;10.40;73.60;;;9.80;60.22;93877.22;5040958;28;20199;-86
2022/04/23 03:11:06;;;;;;;0.60;0.60;;;10.50;73.80;;;9.87;60.35;93889.25;5074637;28;20264;-86
2022/04/23 03:13:35;;;;;;;0.50;0.50;;;10.40;73.70;;;9.88;60.26;93890.84;5055288;28;20219;-86
2022/04/23 03:16:03;;;;;;;0.60;0.60;;;10.40;73.60;;;9.85;60.51;93891.28;5054658;28;20218;-86
2022/04/23 03:18:31;;;;;;;0.70;0.70;;;10.40;73.60;;;9.77;60.34;93876.63;5041264;28;20198;-86
2022/04/23 03:20:58;;;;;;;0.70;0.70;;;10.50;73.70;;;9.83;60.15;93882.03;5041309;28;20271;-87
2022/04/23 03:23:27;;;;;;;0.50;0.50;;;10.50;73.80;;;9.89;60.38;93894.28;5049879;28;20673;-87
2022/04/23 03:25:54;;;;;;;0.50;0.50;;;10.40;73.70;;;9.86;60.28;93885.03;5039883;28;20221;-86
2022/04/23 03:28:22;;;;;;;0.50;0.50;;;10.40;73.60;;;9.84;60.29;93896.72;5038854;28;20712;-87
2022/04/23 03:30:49;;;;;;;0.50;0.50;;;10.40;73.70;;;9.83;60.49;93893.31;5041914;28;20222;-86
2022/04/23 03:33:16;;;;;;;0.52;0.52;;;10.50;73.80;;;9.80;60.34;93885.06;5041848;28;20218;-86
2022/04/23 03:35:44;;;;;;;0.60;0.60;;;10.40;73.80;;;9.81;60.41;93887.47;5058257;28;20213;-86
2022/04/23 03:38:11;;;;;;;0.60;0.60;;;10.40;73.80;;;9.80;60.60;93883.25;5041799;28;20214;-86
2022/04/23 03:40:39;;;;;;;0.60;0.60;;;10.40;73.80;;;9.80;60.63;93887.69;5040977;28;20219;-86
2022/04/23 03:43:06;;;;;;;0.50;0.50;;;10.40;73.90;;;9.79;60.24;93886.91;5075474;28;20213;-86
2022/04/23 03:45:33;;;;;;;0.60;0.60;;;10.40;73.90;;;9.82;60.42;93888.28;5057529;28;20218;-86
2022/04/23 03:48:02;;;;;;;0.50;0.50;;;10.40;73.90;;;9.66;60.56;93860.81;5058002;28;20202;-84
2022/04/23 03:50:33;;;;;;;0.60;0.60;;;10.40;73.90;;;9.82;60.43;93889.09;5049325;28;20630;-85
2022/04/23 03:53:00;;;;;;;0.57;0.57;;;10.40;73.90;;;9.82;60.34;93894.31;5061110;28;20708;-85
2022/04/23 03:55:27;;;;;;;0.60;0.60;;;10.40;73.90;;;9.83;60.47;93897.75;5044839;28;20680;-84
2022/04/23 03:57:56;;;;;;;0.50;0.50;;;10.50;74.00;;;9.72;60.49;93875.66;5044647;28;20210;-84
2022/04/23 04:00:23;;;;;;;0.60;0.60;;;10.40;73.90;;;9.73;60.65;93885.13;5059938;28;20309;-84
2022/04/23 04:02:51;;;;;;;0.70;0.70;;;10.40;73.90;;;9.77;60.41;93883.69;5043822;28;20206;-85
2022/04/23 04:05:19;;;;;;;0.52;0.52;;;10.40;74.00;;;9.73;60.61;93882.53;5061421;28;20713;-86
2022/04/23 04:07:47;;;;;;;0.70;0.70;;;10.40;74.00;;;9.83;60.43;93895.94;5061339;28;20652;-86
2022/04/23 04:10:20;;;;;;;0.70;0.70;;;10.40;74.00;;;9.77;60.40;93886.31;5060491;28;20238;-87
2022/04/23 04:12:48;;;;;;;0.50;0.50;;;10.40;74.30;;;9.82;60.63;93891.69;5043236;28;20221;-87
2022/04/23 04:15:17;;;;;;;0.70;0.70;;;10.40;74.00;;;9.70;60.33;93880.31;5044964;28;20211;-87
2022/04/23 04:17:48;;;;;;;0.50;0.50;;;10.40;74.00;;;9.66;60.72;93879.94;5067851;28;20210;-87
2022/04/23 04:20:16;;;;;;;0.60;0.60;;;10.40;74.00;;;9.77;60.60;93888.94;5081817;28;20673;-87
2022/04/23 04:22:44;;;;;;;0.60;0.60;;;10.40;73.90;;;9.76;60.64;93889.94;5063564;28;20307;-86
2022/04/23 04:25:13;;;;;;;0.50;0.50;;;10.40;73.90;;;9.72;60.63;93897.41;5044903;28;20237;-87
2022/04/23 04:27:41;;;;;;;0.50;0.50;;;10.40;73.90;;;9.64;60.46;93878.53;5044597;28;20618;-86
2022/04/23 04:30:10;;;;;;;0.70;0.70;;;10.30;73.90;;;9.71;60.61;93889.78;5044994;28;20226;-87
2022/04/23 04:32:41;;;;;;;0.50;0.50;;;10.30;73.90;;;9.61;60.77;93882.38;5074245;28;20711;-87
2022/04/23 04:35:10;;;;;;;0.50;0.50;;;10.30;73.90;;;9.57;60.80;93868.91;5055480;28;20230;-86
2022/04/23 04:37:39;;;;;;;0.63;0.63;;;10.30;74.00;;;9.59;60.56;93879.16;5081041;28;20201;-86
2022/04/23 04:40:07;;;;;;;0.50;0.50;;;10.30;73.90;;;9.69;60.22;93899.66;5061821;28;20345;-87
2022/04/23 04:42:35;;;;;;;0.70;0.70;;;10.30;73.90;;;9.65;60.54;93888.78;5060691;28;20278;-86
2022/04/23 04:45:03;;;;;;;0.50;0.50;;;10.30;74.00;;;9.58;60.55;93880.19;5055580;28;20228;-87
2022/04/23 04:47:30;;;;;;;0.60;0.60;;;10.20;73.90;;;9.67;60.71;93893.84;5054164;28;20210;-86
2022/04/23 04:49:57;;;;;;;0.80;0.80;;;10.30;73.90;;;9.60;60.76;93888.63;5059576;28;20230;-85
2022/04/23 04:52:24;;;;;;;0.70;0.70;;;10.30;74.00;;;9.66;60.65;93895.63;5040432;28;20222;-86
2022/04/23 04:54:56;;;;;;;0.55;0.55;;;10.20;74.00;;;9.68;60.66;93906.72;5041299;28;20223;-88
2022/04/23 04:57:25;;;;;;;0.50;0.50;;;10.30;74.00;;;9.68;60.71;93911.13;5056803;28;20667;-86
2022/04/23 04:59:52;;;;;;;0.60;0.60;;;10.30;74.10;;;9.70;60.77;93911.72;5059908;28;20722;-86
2022/04/23 05:02:19;;;;;;;0.60;0.60;;;10.30;74.20;;;9.64;60.74;93905.50;5042998;28;20290;-86
2022/04/23 05:04:47;;;;;;;0.50;0.50;;;10.30;74.20;;;9.65;60.53;93909.72;5060446;28;20217;-85
2022/04/23 05:07:14;;;;;;;0.50;0.50;;;10.30;74.20;;;9.74;60.70;93915.53;5060002;28;20214;-86
2022/04/23 05:09:41;;;;;;;0.50;0.50;;;10.30;74.20;;;9.75;60.79;93925.81;5040923;28;20276;-85
2022/04/23 05:12:09;;;;;;;0.60;0.60;;;10.30;74.30;;;9.74;60.69;93921.56;5056485;28;20222;-85
2022/04/23 05:14:36;;;;;;;0.70;0.70;;;10.30;74.30;;;9.77;60.61;93928.22;5040285;28;20215;-86
2022/04/23 05:17:09;;;;;;;0.70;0.70;;;10.30;74.30;;;9.79;60.68;93928.81;5047709;28;20201;-86
2022/04/23 05:19:36;;;;;;;0.50;0.50;;;10.30;74.20;;;9.77;60.59;93936.06;5059810;28;20726;-86
2022/04/23 05:22:03;;;;;;;0.50;0.50;;;10.40;74.30;;;9.77;60.85;93933.44;5060184;28;20204;-86
2022/04/23 05:24:30;;;;;;;0.70;0.70;;;10.30;74.20;;;9.74;60.84;93931.22;5076588;28;20753;-86
2022/04/23 05:26:58;;;;;;;0.60;0.60;;;10.30;74.20;;;9.77;60.76;93938.69;5076759;28;20532;-85
2022/04/23 05:29:25;;;;;;;0.50;0.50;;;10.30;74.20;;;9.78;60.54;93946.31;5059062;28;20696;-85
2022/04/23 05:31:52;;;;;;;0.50;0.50;;;10.30;74.20;;;9.79;60.78;93939.28;5052896;28;20230;-86
2022/04/23 05:34:19;;;;;;;0.60;0.60;;;10.30;74.20;;;9.76;60.55;93940.50;5061212;28;20233;-86
2022/04/23 05:36:46;;;;;;;0.70;0.70;;;10.30;74.20;;;9.77;60.65;93944.72;5068572;28;20210;-86
2022/04/23 05:39:13;;;;;;;0.60;0.60;;;10.40;74.20;;;9.80;60.57;93953.16;5070438;28;20219;-86
2022/04/23 05:41:47;;;;;;;0.50;0.50;;;10.30;74.10;;;9.74;60.78;93946.94;5075599;28;20566;-86
2022/04/23 05:44:13;;;;;;;0.50;0.50;;;10.30;74.10;;;9.74;60.96;93944.31;5057775;28;20228;-86
2022/04/23 05:46:41;;;;;;;0.70;0.70;;;10.40;74.20;;;9.73;60.97;93951.38;5079833;28;20232;-86
2022/04/23 05:49:08;;;;;;;0.68;0.68;;;10.30;74.10;;;9.75;60.93;93956.41;5056559;28;20230;-87
2022/04/23 05:51:35;;;;;;;0.70;0.70;;;10.30;74.20;;;9.69;60.81;93952.00;5045311;28;20252;-86
2022/04/23 05:54:03;;;;;;;0.60;0.60;;;10.40;74.30;;;9.80;60.69;93961.81;5058161;28;20324;-84
2022/04/23 05:56:31;;;;;;;0.80;0.80;;;10.30;74.20;;;9.73;60.64;93950.59;5051126;28;20254;-86
2022/04/23 05:58:59;;;;;;;0.50;0.50;;;10.40;74.30;;;9.82;60.79;93966.88;5058275;28;20208;-86
2022/04/23 06:01:25;;;;;;;0.50;0.50;;;10.40;74.30;;;9.78;60.80;93967.25;5076819;28;20285;-86
2022/04/23 06:03:53;;;;;;;0.50;0.50;;;10.40;74.20;;;9.85;60.52;93974.28;5062078;28;20259;-86
2022/04/23 06:06:20;;;;;;;0.60;0.60;;;10.40;74.30;;;9.88;60.78;93976.50;5061075;28;20237;-86
2022/04/23 06:08:47;;;;;;;0.60;0.60;;;10.40;74.20;;;9.87;60.48;93969.66;5061221;28;20217;-85
2022/04/23 06:11:14;;;;;;;0.60;0.60;;;10.40;74.10;;;9.89;60.57;93975.47;5042554;28;20240;-86
2022/04/23 06:13:42;;;;;;;0.70;0.70;;;10.40;74.00;;;9.73;60.57;93948.78;5078427;28;20206;-86
2022/04/23 06:16:09;;;;;;;0.70;0.70;;;10.40;74.00;;;9.87;60.60;93970.44;5061953;28;20202;-86
2022/04/23 06:18:36;;;;;;;0.60;0.60;;;10.40;74.00;;;9.87;60.46;93975.66;5061514;28;20296;-87
2022/04/23 06:21:03;;;;;;;0.40;0.40;;;10.40;74.00;;;9.78;60.39;93958.63;5077285;28;20226;-86
2022/04/23 06:23:30;;;;;;;0.70;0.70;;;10.40;73.90;;;9.89;60.64;93971.03;5079490;28;20568;-86
2022/04/23 06:25:57;;;;;;;0.70;0.70;;;10.40;74.10;;;9.82;60.67;93959.00;5078220;28;20218;-86
2022/04/23 06:28:25;;;;;;;0.60;0.60;;;10.40;74.00;;;9.85;60.66;93969.03;5067503;28;20413;-86
2022/04/23 06:30:52;;;;;;;0.70;0.70;;;10.40;74.00;;;9.92;60.81;93981.09;5056869;28;20228;-87
2022/04/23 06:33:19;;;;;;;0.50;0.50;;;10.40;73.90;;;9.91;60.41;93979.50;5077978;28;20695;-86
2022/04/23 06:35:46;;;;;;;0.60;0.60;;;10.50;74.00;;;9.97;60.65;93987.53;5077882;28;20308;-86
2022/04/23 06:38:13;;;;;;;0.60;0.60;;;10.50;74.00;;;9.88;60.47;93979.91;5064554;28;20191;-86
2022/04/23 06:40:41;;;;;;;0.60;0.60;;;10.50;73.90;;;9.96;60.33;93991.16;5073399;28;20213;-86
2022/04/23 06:43:08;;;;;;;0.50;0.50;;;10.50;74.00;;;10.00;60.47;93998.38;5062090;28;20194;-86
2022/04/23 06:45:41;;;;;;;0.50;0.50;;;10.50;73.90;;;10.01;60.71;94005.22;5042402;28;20237;-85
2022/04/23 06:48:08;;;;;;;0.50;0.50;;;10.50;73.90;;;9.93;60.10;93998.41;5044382;28;20209;-86
2022/04/23 06:50:36;;;;;;;0.65;0.65;;;10.50;73.90;;;9.94;60.28;93993.97;5067653;28;20234;-86
2022/04/23 06:53:05;;;;;;;0.50;0.50;;;10.50;73.90;;;9.97;60.47;94003.25;5042417;28;20299;-86
2022/04/23 06:55:33;;;;;;;0.60;0.60;;;10.50;73.80;;;9.99;60.36;94007.25;5092542;28;20220;-86
2022/04/23 06:58:00;;;;;;;0.60;0.60;;;10.50;73.80;;;9.96;60.27;94005.06;5078177;28;20204;-86
2022/04/23 07:00:27;;;;;;;0.60;0.60;;;10.50;73.80;;;9.94;60.20;94005.25;5056441;28;20226;-86
2022/04/23 07:02:58;;;;;;;0.70;0.70;;;10.50;73.70;;;9.96;60.27;94010.31;5075111;28;20265;-86
2022/04/23 07:05:25;;;;;;;0.70;0.70;;;10.50;73.70;;;9.97;60.15;94011.09;5063565;28;20223;-86
2022/04/23 07:07:59;;;;;;;0.50;0.50;;;10.50;74.60;;;9.96;60.21;94007.69;5069858;28;20301;-86
2022/04/23 07:10:29;;;;;;;0.50;0.50;;;10.50;73.80;;;9.92;60.10;94003.84;5075468;28;20717;-85
2022/04/23 07:12:57;;;;;;;0.55;0.55;;;10.50;73.60;;;9.94;60.06;94018.34;5061033;28;20239;-86
2022/04/23 07:15:27;;;;;;;0.50;0.50;;;10.50;73.60;;;9.96;60.33;94019.97;5077726;28;20278;-86
2022/04/23 07:17:55;;;;;;;0.50;0.50;;;10.40;73.70;;;9.98;60.11;94017.94;5062340;28;20201;-86
2022/04/23 07:20:22;;;;;;;0.70;0.70;;;10.50;73.70;;;9.93;60.38;94000.22;5063726;28;20227;-85
2022/04/23 07:25:37;;;;;;;0.70;0.70;;;10.50;73.90;;;10.03;60.29;94007.63;5081043;28;20221;-86
2022/04/23 07:28:05;;;;;;;0.50;0.50;;;10.50;74.00;;;10.08;60.19;94008.63;5065610;28;20190;-86
2022/04/23 07:30:34;;;;;;;0.47;0.47;;;10.50;74.00;;;10.14;60.29;94009.56;5060032;28;20249;-85
2022/04/23 07:33:02;;;;;;;0.65;0.65;;;10.60;74.20;;;10.10;60.28;94001.31;5065582;28;20289;-85
2022/04/23 07:38:20;;;;;;;0.50;0.50;;;10.60;74.00;;;10.29;60.05;94019.78;5083686;28;20201;-86
2022/04/23 07:40:49;;;;;;;0.50;0.50;;;10.70;74.20;;;10.15;60.10;93989.44;5063551;28;20225;-87
2022/04/23 07:43:17;;;;;;;0.60;0.60;;;10.70;73.90;;;10.35;60.07;94013.69;5051763;28;20199;-86
2022/04/23 07:45:46;;;;;;;0.57;0.57;;;10.70;73.90;;;10.35;60.34;94008.44;5051574;28;20271;-86
2022/04/23 07:48:14;;;;;;;0.60;0.60;;;10.80;74.10;;;10.45;60.25;94013.25;5064883;28;20231;-87
2022/04/23 07:50:43;;;;;;;0.60;0.60;;;10.80;74.10;;;10.51;60.25;94009.78;5052418;28;20241;-86
2022/04/23 07:53:11;;;;;;;0.70;0.70;;;10.80;74.20;;;10.58;60.25;94012.31;5051604;28;20713;-86
2022/04/23 07:55:40;;;;;;;0.70;0.70;;;10.90;74.30;;;10.65;59.81;94013.06;5081401;28;20271;-86
2022/04/23 07:58:11;;;;;;;0.60;0.60;;;10.90;74.30;;;10.72;60.00;94008.59;5080979;28;20198;-86
2022/04/23 08:00:40;;;;;;;0.60;0.60;;;11.00;74.30;;;10.82;59.97;94008.09;5063625;28;20269;-86
2022/04/23 08:03:09;;;;;;;0.50;0.50;;;11.00;74.30;;;10.81;60.01;93992.56;5061306;28;20274;-87
2022/04/23 08:05:36;;;;;;;0.70;0.70;;;11.10;74.40;;;10.98;59.80;94013.81;5080812;28;20237;-85
2022/04/23 08:08:04;;;;;;;0.50;0.50;;;11.20;74.30;;;11.05;59.83;94009.31;5078768;28;20199;-86
2022/04/23 08:10:31;;;;;;;0.68;0.68;;;11.20;74.20;;;10.99;59.73;93997.84;5047139;28;20313;-86
2022/04/23 08:12:59;;;;;;;0.50;0.50;;;11.30;74.20;;;11.18;59.66;94018.84;5058716;28;20222;-85
2022/04/23 08:15:29;;;;;;;0.55;0.55;;;11.40;74.10;;;11.18;59.58;94008.34;5068171;28;20706;-86
2022/04/23 08:17:57;;;;;;;0.52;0.52;;;11.40;74.00;;;11.21;59.14;94000.84;5063140;28;20209;-87
2022/04/23 08:20:24;;;;;;;0.50;0.50;;;11.50;74.00;;;11.38;59.44;94018.66;5076167;28;20274;-87
2022/04/23 08:22:51;;;;;;;0.50;0.50;;;11.60;74.00;;;11.46;59.72;94025.44;5064153;28;20204;-88
2022/04/23 08:25:19;;;;;;;0.50;0.50;;;11.60;73.90;;;11.52;59.20;94030.63;5064557;28;20214;-88
2022/04/23 08:27:55;;;;;;;0.60;0.60;;;11.60;73.60;;;11.56;58.88;94038.88;5056816;28;20214;-87
2022/04/23 08:30:34;;;;;;;0.60;0.60;;;11.70;73.50;;;11.56;58.82;94030.19;5066982;28;20218;-88
2022/04/23 08:33:04;;;;;;;0.60;0.60;;;11.80;73.50;;;11.55;58.88;94034.63;5077528;28;20255;-87
2022/04/23 08:35:33;;;;;;;0.50;0.50;;;11.80;73.30;;;11.48;58.81;94026.03;5048394;28;20221;-87
2022/04/23 08:38:00;;;;;;;0.60;0.60;;;11.80;73.20;;;11.47;58.63;94027.03;5043892;28;20271;-87
2022/04/23 08:40:29;;;;;;;0.50;0.50;;;11.90;73.20;;;11.56;58.80;94038.06;5044635;28;20691;-86
2022/04/23 08:42:57;;;;;;;0.50;0.50;;;11.90;73.10;;;11.58;58.47;94034.19;5067978;28;20461;-86
2022/04/23 08:45:25;;;;;;;0.50;0.50;;;11.90;73.10;;;11.60;58.87;94034.00;5059625;28;20264;-86
2022/04/23 08:47:52;;;;;;;0.40;0.40;;;11.90;73.20;;;11.57;58.69;94011.59;5053444;28;20203;-86
2022/04/23 08:50:23;;;;;;;0.60;0.60;;;11.90;73.20;;;11.75;58.54;94031.75;5056102;28;20228;-85
2022/04/23 08:52:54;;;;;;;0.60;0.60;;;12.00;73.10;;;11.65;58.53;93994.72;5061561;28;20286;-88
2022/04/23 08:55:22;;;;;;;0.60;0.60;;;12.00;73.10;;;11.81;58.53;94015.13;5074365;28;20236;-86
2022/04/23 08:57:49;;;;;;;0.50;0.50;;;12.00;73.10;;;11.87;58.42;94013.44;5070417;28;20204;-84
2022/04/23 09:00:17;;;;;;;0.60;0.60;;;12.00;73.20;;;11.94;58.48;94002.84;5058071;28;20238;-85
2022/04/23 09:02:45;;;;;;;0.50;0.50;;;12.10;73.40;;;11.92;58.56;93995.19;5042943;28;20202;-84
2022/04/23 09:05:14;;;;;;;0.60;0.60;;;12.20;73.40;;;12.09;58.40;94010.38;5059325;28;21825;-86
2022/04/23 09:07:53;;;;;;;0.60;0.60;;;12.20;73.40;;;12.24;58.31;94023.91;5058859;28;20206;-86
2022/04/23 09:10:20;;;;;;;0.60;0.60;;;12.30;72.90;;;12.29;58.18;94024.03;5065574;28;20227;-87
2022/04/23 09:12:56;;;;;;;0.60;0.60;;;12.40;73.20;;;12.32;58.04;94023.56;5059926;28;20204;-87
2022/04/23 09:24:10;;;;;;;0.60;0.60;;;12.60;72.80;;;12.41;57.49;94029.31;5050896;28;20784;-88
2022/04/23 09:26:40;;;;;;;0.60;0.60;;;12.70;72.50;;;12.22;57.66;94001.47;5080658;28;20797;-87
2022/04/23 09:29:18;;;;;;;0.60;0.60;;;12.60;72.30;;;12.26;57.87;94015.78;5046398;28;20213;-87
2022/04/23 09:31:45;;;;;;;0.60;0.60;;;12.70;72.20;;;12.41;57.69;94031.94;5057020;28;20247;-86
2022/04/23 09:34:18;;;;;;;0.63;0.63;;;12.70;72.50;;;12.45;57.57;94024.41;5059125;28;20237;-86
2022/04/23 09:36:50;;;;;;;0.60;0.60;;;12.70;72.30;;;12.47;57.71;94024.97;5055663;28;20217;-87
2022/04/23 09:39:31;;;;;;;0.60;0.60;;;12.70;72.50;;;12.59;57.86;94027.66;5052750;28;20226;-86
2022/04/23 09:42:12;;;;;;;0.60;0.60;;;12.80;72.50;;;12.70;57.80;94021.59;5038753;28;20267;-86
2022/04/23 09:44:40;;;;;;;0.60;0.60;;;12.80;72.60;;;12.72;57.65;94008.19;5042737;28;20218;-87
2022/04/23 09:47:07;;;;;;;0.50;0.50;;;12.90;73.10;;;12.98;57.58;94023.56;5045988;28;20194;-87
2022/04/23 09:49:36;;;;;;;0.60;0.60;;;13.00;73.10;;;13.00;57.48;94006.72;5051564;28;20311;-86
2022/04/23 09:52:08;;;;;;;0.60;0.60;;;13.00;73.00;;;13.17;57.32;94020.84;5048203;28;20194;-87
2022/04/23 09:54:38;;;;;;;0.60;0.60;;;13.10;72.80;;;13.23;56.91;94014.63;5053630;28;20262;-86
2022/04/23 09:57:06;;;;;;;0.50;0.50;;;13.20;72.60;;;13.24;57.10;94007.53;5046825;28;20206;-87
2022/04/23 09:59:33;;;;;;;0.50;0.50;;;13.30;72.80;;;13.45;57.17;94016.69;5042151;28;20214;-86
2022/04/23 10:02:02;;;;;;;0.50;0.50;;;13.30;72.70;;;13.56;57.05;94015.06;5039111;28;20702;-88
2022/04/23 10:04:31;;;;;;;0.50;0.50;;;13.40;72.70;;;13.51;57.07;93991.25;5056899;28;20601;-87
2022/04/23 10:07:01;;;;;;;0.60;0.60;;;13.50;72.60;;;13.75;56.60;94007.81;5051494;28;20205;-88
2022/04/23 10:09:38;;;;;;;0.70;0.70;;;13.70;72.70;;;14.00;56.89;94009.31;5042103;28;20241;-86
2022/04/23 10:12:09;;;;;;;0.60;0.60;;;13.80;72.80;;;14.04;56.71;93982.25;5042176;28;20619;-86
2022/04/23 10:14:46;;;;;;;0.80;0.80;;;13.90;72.90;;;14.35;56.26;93995.19;5069965;28;20235;-85
2022/04/23 10:17:20;;;;;;;0.50;0.50;;;14.10;72.50;;;14.48;55.71;93986.97;5059150;28;20233;-86
2022/04/23 10:19:48;;;;;;;0.50;0.50;;;14.20;72.30;;;14.66;55.44;94008.91;5039488;28;20233;-85
2022/04/23 10:22:35;;;;;;;0.50;0.50;;;14.40;72.20;;;14.66;55.36;94004.44;5055496;28;20194;-85
2022/04/23 10:25:22;;;;;;;0.50;0.50;;;14.50;71.40;;;14.63;55.00;93990.91;5074681;28;20253;-84
2022/04/23 10:27:51;;;;;;;0.50;0.50;;;14.60;71.00;;;14.73;54.90;94005.09;5075038;28;20209;-86
2022/04/23 10:30:19;;;;;;;0.50;0.50;;;14.70;71.10;;;14.75;54.81;94011.97;5041972;28;20221;-85
2022/04/23 10:32:46;;;;;;;0.60;0.60;;;14.70;71.20;;;14.63;54.79;93994.31;5058852;28;20232;-85
2022/04/23 10:35:19;;;;;;;0.50;0.50;;;14.70;71.00;;;14.85;55.02;94012.13;5074769;28;20229;-85
2022/04/23 10:37:53;;;;;;;0.50;0.50;;;14.80;70.90;;;15.00;55.13;94022.91;5075802;28;20182;-85
2022/04/23 10:40:21;;;;;;;0.70;0.70;;;14.80;72.20;;;15.12;54.68;94011.47;5058653;28;20267;-85
2022/04/23 10:43:07;;;;;;;0.70;0.70;;;14.90;71.20;;;15.19;54.82;94004.16;5058059;28;20202;-85